Time;durP1;ratioP1;P1;durP2;ratioP2;P2;SDS_P1;SDS_P2;PMS_P1;PMS_P2;Temp;Humidity;BMP_temperature;BMP_pressure;BME280_temperature;BME280_humidity;BME280_pressure;Samples;Min_cycle;Max_cycle;Signal;HPM_P1;HPM_P2
2022/07/30 00:02:16;;;;;;;10.87;6.10;;;14.50;86.10;;;;;;5052663;28;20297;-67
2022/07/30 00:04:42;;;;;;;8.87;5.93;;;14.50;85.80;;;;;;5053149;28;20274;-67
2022/07/30 00:07:08;;;;;;;9.57;6.30;;;14.50;86.20;;;;;;5065122;28;20064;-67
2022/07/30 00:09:33;;;;;;;9.30;7.13;;;14.50;85.90;;;;;;5052092;28;20310;-67
2022/07/30 00:11:59;;;;;;;9.10;6.73;;;14.40;86.80;;;;;;5060081;28;20048;-67
2022/07/30 00:14:25;;;;;;;8.90;5.53;;;14.40;87.20;;;;;;5050980;28;20033;-67
2022/07/30 00:16:52;;;;;;;10.73;6.57;;;14.40;86.90;;;;;;5034593;28;20048;-67
2022/07/30 00:19:18;;;;;;;7.13;5.43;;;14.30;87.10;;;;;;5069053;28;20527;-67
2022/07/30 00:21:44;;;;;;;6.73;5.30;;;14.30;87.30;;;;;;5070086;28;20305;-67
2022/07/30 00:24:10;;;;;;;5.53;4.83;;;14.30;87.20;;;;;;5051368;28;20282;-67
2022/07/30 00:26:36;;;;;;;6.10;4.47;;;14.20;87.70;;;;;;5068233;28;20060;-67
2022/07/30 00:29:02;;;;;;;4.83;4.33;;;14.20;88.20;;;;;;5059129;28;20810;-67
2022/07/30 00:31:28;;;;;;;5.13;3.73;;;14.20;87.90;;;;;;5068183;28;20044;-67
2022/07/30 00:33:53;;;;;;;4.53;3.80;;;14.10;88.10;;;;;;5068008;28;20283;-67
2022/07/30 00:36:19;;;;;;;4.47;3.97;;;14.10;88.00;;;;;;5053242;28;20051;-67
2022/07/30 00:38:45;;;;;;;3.77;3.27;;;14.00;87.60;;;;;;5060988;28;20106;-67
2022/07/30 00:41:12;;;;;;;5.27;4.27;;;14.00;87.50;;;;;;5068656;28;20423;-67
2022/07/30 00:43:37;;;;;;;5.23;4.33;;;14.00;86.90;;;;;;5068467;28;20029;-67
2022/07/30 00:46:03;;;;;;;4.77;4.23;;;14.00;86.80;;;;;;5053445;28;20310;-67
2022/07/30 00:48:29;;;;;;;2.43;2.23;;;14.00;86.70;;;;;;5067275;28;20115;-67
2022/07/30 00:50:54;;;;;;;2.50;2.30;;;13.90;87.00;;;;;;5069780;28;20032;-67
2022/07/30 00:53:20;;;;;;;2.70;2.40;;;13.90;87.40;;;;;;5018384;28;20591;-67
2022/07/30 00:55:46;;;;;;;2.40;2.20;;;13.80;87.50;;;;;;5068869;28;20393;-67
2022/07/30 00:58:11;;;;;;;2.30;2.10;;;13.80;87.20;;;;;;5033251;28;20432;-67
2022/07/30 01:00:37;;;;;;;2.57;2.37;;;13.80;87.40;;;;;;5068863;28;20086;-67
2022/07/30 01:03:03;;;;;;;2.90;2.43;;;13.70;87.40;;;;;;5041058;28;20042;-67
2022/07/30 01:05:29;;;;;;;2.73;2.50;;;13.70;87.60;;;;;;5050812;28;20436;-67
2022/07/30 01:07:55;;;;;;;3.37;3.07;;;13.70;88.30;;;;;;5017813;28;20295;-67
2022/07/30 01:10:21;;;;;;;15.17;3.40;;;13.70;88.30;;;;;;5035312;28;20286;-67
2022/07/30 01:12:47;;;;;;;9.63;2.63;;;13.70;88.10;;;;;;5056790;28;20389;-67
2022/07/30 01:15:13;;;;;;;9.20;2.20;;;13.70;87.90;;;;;;5067055;28;20040;-67
2022/07/30 01:17:39;;;;;;;5.67;1.70;;;13.60;87.50;;;;;;5063991;28;20033;-67
2022/07/30 01:20:16;;;;;;;15.40;2.00;;;13.60;87.50;;;;;;5045595;28;20302;-67
2022/07/30 01:22:54;;;;;;;10.97;1.93;;;13.50;87.70;;;;;;5064674;28;20036;-67
2022/07/30 01:25:23;;;;;;;5.53;1.67;;;13.50;87.80;;;;;;5043244;28;20310;-67
2022/07/30 01:28:06;;;;;;;38.50;2.80;;;13.40;88.10;;;;;;5048675;28;20369;-67
2022/07/30 01:30:35;;;;;;;9.57;2.10;;;13.30;88.30;;;;;;5064401;28;20299;-67
2022/07/30 01:33:03;;;;;;;15.80;2.37;;;13.30;88.80;;;;;;5068821;28;20286;-67
2022/07/30 01:35:31;;;;;;;18.47;2.70;;;13.20;89.20;;;;;;5066721;28;20336;-67
2022/07/30 01:37:59;;;;;;;16.60;2.93;;;13.20;89.60;;;;;;5057369;28;20283;-67
2022/07/30 01:40:27;;;;;;;23.33;3.53;;;13.10;89.90;;;;;;5049725;28;20307;-67
2022/07/30 01:42:56;;;;;;;35.17;3.47;;;13.00;90.50;;;;;;5065745;28;20294;-67
2022/07/30 01:45:23;;;;;;;8.10;3.43;;;13.00;91.00;;;;;;5066802;28;20289;-67
2022/07/30 01:47:54;;;;;;;30.30;4.27;;;13.00;91.00;;;;;;5068565;28;20340;-67
2022/07/30 01:50:21;;;;;;;18.97;4.13;;;13.00;91.00;;;;;;5068374;28;20275;-67
2022/07/30 01:52:51;;;;;;;22.97;5.17;;;13.00;91.10;;;;;;5068380;28;20357;-67
2022/07/30 01:55:24;;;;;;;12.73;3.80;;;13.00;91.00;;;;;;5065269;28;20286;-67
2022/07/30 01:57:52;;;;;;;12.73;3.37;;;13.00;90.90;;;;;;5050053;28;20360;-67
2022/07/30 02:00:18;;;;;;;8.70;3.50;;;13.10;91.50;;;;;;5066860;28;20624;-67
2022/07/30 02:02:44;;;;;;;12.00;3.77;;;13.10;92.00;;;;;;5034410;28;20322;-67
2022/07/30 02:05:11;;;;;;;6.93;3.47;;;13.10;92.10;;;;;;5066731;28;20049;-67
2022/07/30 02:07:49;;;;;;;8.53;4.03;;;13.10;92.40;;;;;;5066399;28;20272;-67
2022/07/30 02:10:22;;;;;;;3.73;3.30;;;13.00;92.40;;;;;;5067221;28;20763;-67
2022/07/30 02:12:54;;;;;;;5.57;3.97;;;13.10;92.30;;;;;;5067202;28;20635;-67
2022/07/30 02:15:27;;;;;;;9.70;4.50;;;13.10;92.00;;;;;;5067836;28;20370;-67
2022/07/30 02:17:59;;;;;;;4.40;3.50;;;13.10;91.60;;;;;;5065533;28;20793;-67
2022/07/30 02:20:28;;;;;;;12.43;4.60;;;13.20;91.30;;;;;;5067128;28;20348;-67
2022/07/30 02:22:58;;;;;;;13.00;5.03;;;13.20;90.90;;;;;;5065783;28;20290;-67
2022/07/30 02:25:26;;;;;;;9.40;5.07;;;13.30;91.20;;;;;;5060699;28;20862;-67
2022/07/30 02:27:59;;;;;;;10.60;5.03;;;13.40;91.00;;;;;;5040097;28;20343;-67
2022/07/30 02:30:30;;;;;;;9.73;4.80;;;13.40;91.10;;;;;;5055080;28;20342;-67
2022/07/30 02:33:09;;;;;;;7.87;4.83;;;13.50;91.00;;;;;;5054062;28;20283;-67
2022/07/30 02:35:36;;;;;;;11.63;5.70;;;13.60;91.10;;;;;;5059502;28;20287;-67
2022/07/30 02:38:04;;;;;;;7.43;5.10;;;13.60;91.20;;;;;;5022077;28;20662;-67
2022/07/30 02:40:30;;;;;;;6.87;5.10;;;13.60;91.00;;;;;;5053832;28;20271;-67
2022/07/30 02:42:58;;;;;;;9.20;5.83;;;13.70;91.30;;;;;;5067540;28;20792;-67
2022/07/30 02:45:24;;;;;;;10.87;5.50;;;13.70;91.60;;;;;;5060333;28;20310;-67
2022/07/30 02:47:54;;;;;;;8.77;5.70;;;13.70;91.40;;;;;;5040173;28;20279;-67
2022/07/30 02:50:22;;;;;;;10.50;6.07;;;13.70;91.60;;;;;;5066646;28;20369;-67
2022/07/30 02:52:49;;;;;;;13.13;6.93;;;13.80;91.50;;;;;;5065040;28;20279;-67
2022/07/30 02:55:16;;;;;;;7.63;5.97;;;13.80;91.60;;;;;;5061786;28;20286;-67
2022/07/30 02:57:43;;;;;;;10.77;5.37;;;13.80;92.20;;;;;;5048460;28;20718;-67
2022/07/30 03:00:10;;;;;;;12.23;5.93;;;13.80;91.80;;;;;;5051692;28;20799;-67
2022/07/30 03:02:37;;;;;;;13.60;6.43;;;13.90;92.40;;;;;;5062132;28;20286;-67
2022/07/30 03:05:05;;;;;;;11.50;6.07;;;13.90;92.70;;;;;;5056967;28;20708;-67
2022/07/30 03:07:31;;;;;;;11.57;6.20;;;14.00;93.00;;;;;;5030341;28;20267;-67
2022/07/30 03:09:58;;;;;;;10.57;5.97;;;14.10;93.10;;;;;;5065989;28;20362;-68
2022/07/30 03:12:27;;;;;;;13.87;6.13;;;14.10;92.90;;;;;;5066229;28;20365;-67
2022/07/30 03:14:54;;;;;;;12.17;6.30;;;14.20;93.10;;;;;;5067474;28;20344;-68
2022/07/30 03:17:22;;;;;;;11.77;6.00;;;14.20;92.70;;;;;;5048192;28;20759;-67
2022/07/30 03:19:49;;;;;;;12.67;6.60;;;14.30;93.30;;;;;;5065503;28;20713;-67
2022/07/30 03:22:17;;;;;;;11.30;6.53;;;14.30;93.10;;;;;;5043938;28;20283;-68
2022/07/30 03:24:45;;;;;;;11.57;6.70;;;14.30;93.60;;;;;;5064330;28;20721;-67
2022/07/30 03:27:12;;;;;;;10.87;6.63;;;14.30;93.50;;;;;;5046071;28;20759;-67
2022/07/30 03:29:40;;;;;;;16.90;7.27;;;14.30;93.40;;;;;;5029934;28;20355;-67
2022/07/30 03:32:06;;;;;;;11.63;6.23;;;14.40;93.40;;;;;;5041974;28;20341;-67
2022/07/30 03:34:36;;;;;;;12.30;6.10;;;14.40;93.90;;;;;;5056768;28;20635;-67
2022/07/30 03:37:05;;;;;;;9.10;5.40;;;14.40;94.00;;;;;;5055348;28;20282;-67
2022/07/30 03:39:33;;;;;;;9.23;6.00;;;14.50;94.30;;;;;;5052846;28;20299;-67
2022/07/30 03:42:00;;;;;;;9.33;5.80;;;14.50;94.20;;;;;;5056340;28;20786;-67
2022/07/30 03:44:26;;;;;;;11.93;5.53;;;14.50;94.00;;;;;;5053077;28;20278;-67
2022/07/30 03:46:53;;;;;;;9.87;6.00;;;14.50;93.90;;;;;;5055766;28;20290;-67
2022/07/30 03:49:21;;;;;;;11.50;6.43;;;14.40;93.60;;;;;;5059682;28;20798;-67
2022/07/30 03:51:48;;;;;;;9.07;5.50;;;14.50;94.30;;;;;;5037528;28;20778;-67
2022/07/30 03:54:14;;;;;;;13.33;6.40;;;14.50;94.40;;;;;;5065842;28;20283;-68
2022/07/30 03:56:41;;;;;;;10.37;5.93;;;14.50;94.40;;;;;;5063112;28;20293;-68
2022/07/30 03:59:09;;;;;;;8.67;5.50;;;14.50;94.00;;;;;;5045029;28;20298;-67
2022/07/30 04:01:35;;;;;;;10.27;5.43;;;14.50;93.70;;;;;;5048619;28;20358;-67
2022/07/30 04:04:07;;;;;;;11.10;5.53;;;14.40;93.60;;;;;;5063834;28;20374;-68
2022/07/30 04:06:38;;;;;;;10.87;5.00;;;14.40;93.50;;;;;;5064704;28;20043;-68
2022/07/30 04:09:09;;;;;;;7.10;5.20;;;14.40;93.40;;;;;;5046146;28;20362;-67
2022/07/30 04:11:35;;;;;;;8.60;5.03;;;14.30;93.20;;;;;;5022708;28;20290;-68
2022/07/30 04:14:00;;;;;;;6.90;4.70;;;14.30;93.10;;;;;;5029410;28;20810;-68
2022/07/30 04:16:43;;;;;;;8.87;5.10;;;14.30;93.00;;;;;;5048938;28;20036;-68
2022/07/30 04:19:15;;;;;;;6.97;4.97;;;14.30;93.10;;;;;;5066334;28;20071;-67
2022/07/30 04:21:43;;;;;;;10.73;6.00;;;14.30;93.10;;;;;;5056331;28;20335;-67
2022/07/30 04:24:10;;;;;;;10.53;6.03;;;14.30;93.30;;;;;;5052745;28;20277;-68
2022/07/30 04:26:37;;;;;;;9.07;6.03;;;14.30;93.50;;;;;;5034792;28;20281;-68
2022/07/30 04:29:09;;;;;;;12.00;6.30;;;14.40;93.60;;;;;;5065129;28;20916;-67
2022/07/30 04:31:35;;;;;;;7.43;5.50;;;14.40;93.70;;;;;;5047605;28;20786;-68
2022/07/30 04:34:03;;;;;;;7.93;6.17;;;14.40;93.40;;;;;;5031082;28;20310;-67
2022/07/30 04:36:30;;;;;;;11.67;5.97;;;14.50;93.50;;;;;;5049683;28;21042;-68
2022/07/30 04:38:57;;;;;;;8.47;6.10;;;14.50;93.30;;;;;;5061733;28;20307;-68
2022/07/30 04:41:23;;;;;;;8.63;5.33;;;14.50;93.40;;;;;;5063247;28;20279;-68
2022/07/30 04:43:50;;;;;;;12.57;5.80;;;14.50;93.50;;;;;;5059697;28;20286;-68
2022/07/30 04:46:16;;;;;;;8.23;5.50;;;14.50;93.30;;;;;;5068724;28;20044;-68
2022/07/30 04:48:41;;;;;;;7.80;5.17;;;14.50;93.20;;;;;;5070232;28;20290;-67
2022/07/30 04:51:22;;;;;;;9.23;5.57;;;14.50;93.00;;;;;;5050365;28;20046;-68
2022/07/30 04:53:49;;;;;;;9.40;4.97;;;14.60;92.90;;;;;;5062835;28;20036;-68
2022/07/30 04:56:17;;;;;;;9.70;5.90;;;14.60;92.90;;;;;;5067524;28;20328;-68
2022/07/30 04:58:44;;;;;;;13.00;6.13;;;14.70;93.20;;;;;;5068695;28;20310;-68
2022/07/30 05:01:11;;;;;;;11.70;6.27;;;15.00;93.60;;;;;;5069012;28;20311;-68
2022/07/30 05:03:38;;;;;;;11.50;6.57;;;15.40;93.40;;;;;;5067470;28;20283;-68
2022/07/30 05:06:05;;;;;;;12.03;6.40;;;15.70;92.70;;;;;;5048066;28;20772;-68
2022/07/30 05:08:31;;;;;;;8.80;6.10;;;16.00;91.70;;;;;;5036168;28;20287;-68
2022/07/30 05:10:57;;;;;;;10.77;6.40;;;16.30;90.90;;;;;;5065468;28;20291;-68
2022/07/30 05:13:22;;;;;;;11.43;6.20;;;16.50;89.60;;;;;;5053009;28;20287;-68
2022/07/30 05:15:48;;;;;;;8.73;6.83;;;16.80;89.10;;;;;;5039535;28;20162;-68
2022/07/30 05:18:14;;;;;;;7.63;5.53;;;17.20;88.20;;;;;;5069490;28;20048;-67
2022/07/30 05:20:39;;;;;;;10.17;5.90;;;17.70;86.30;;;;;;5037477;28;20509;-67
2022/07/30 05:23:05;;;;;;;8.77;5.73;;;18.20;84.20;;;;;;5050821;28;20040;-67
2022/07/30 05:25:31;;;;;;;9.13;4.83;;;18.70;82.90;;;;;;5066791;28;20044;-67
2022/07/30 05:27:57;;;;;;;8.93;4.57;;;19.20;81.30;;;;;;5042067;28;20046;-68
2022/07/30 05:30:23;;;;;;;8.73;4.43;;;19.30;79.40;;;;;;5063118;28;20067;-68
2022/07/30 05:32:50;;;;;;;10.73;4.70;;;19.50;79.30;;;;;;5051030;28;20485;-68
2022/07/30 05:35:16;;;;;;;9.47;4.60;;;19.70;78.40;;;;;;5048548;28;20366;-68
2022/07/30 05:37:41;;;;;;;9.87;4.57;;;19.80;77.30;;;;;;5060263;28;20694;-68
2022/07/30 05:40:08;;;;;;;7.23;4.37;;;20.00;76.80;;;;;;5060167;28;20656;-68
2022/07/30 05:42:34;;;;;;;7.87;4.27;;;20.00;77.00;;;;;;5038555;28;20433;-68
2022/07/30 05:44:59;;;;;;;12.73;4.27;;;20.00;77.00;;;;;;5056034;28;21163;-68
2022/07/30 05:47:26;;;;;;;7.50;4.20;;;20.10;76.80;;;;;;5042322;28;20044;-68
2022/07/30 05:49:52;;;;;;;6.77;4.10;;;20.30;76.50;;;;;;5050259;28;20050;-68
2022/07/30 05:52:18;;;;;;;11.87;4.90;;;20.60;75.50;;;;;;5050082;28;20283;-68
2022/07/30 05:54:44;;;;;;;9.77;4.07;;;20.60;74.90;;;;;;5061728;28;20052;-68
2022/07/30 05:57:10;;;;;;;9.23;4.37;;;20.60;74.40;;;;;;5046992;28;20040;-68
2022/07/30 05:59:35;;;;;;;6.87;4.23;;;20.50;74.60;;;;;;5049792;28;20904;-68
2022/07/30 06:02:02;;;;;;;10.00;4.73;;;20.40;74.80;;;;;;5066566;28;20062;-68
2022/07/30 06:04:28;;;;;;;10.27;4.50;;;20.10;75.30;;;;;;5032236;28;20049;-68
2022/07/30 06:06:54;;;;;;;8.20;4.87;;;19.80;76.80;;;;;;5047245;28;20405;-68
2022/07/30 06:09:19;;;;;;;7.80;5.13;;;19.80;77.40;;;;;;5065759;28;20278;-68
2022/07/30 06:11:45;;;;;;;10.97;5.50;;;19.90;77.30;;;;;;5051514;28;20083;-68
2022/07/30 06:14:11;;;;;;;6.97;4.87;;;20.10;77.00;;;;;;5051166;28;20048;-68
2022/07/30 06:16:37;;;;;;;8.20;4.93;;;20.40;76.20;;;;;;5066676;28;20106;-68
2022/07/30 06:19:03;;;;;;;10.90;5.07;;;20.80;75.60;;;;;;5067186;28;20044;-68
2022/07/30 06:21:28;;;;;;;8.07;5.07;;;21.20;73.60;;;;;;5051039;28;20039;-68
2022/07/30 06:23:54;;;;;;;8.20;4.93;;;21.60;71.80;;;;;;5021865;28;20041;-68
2022/07/30 06:26:20;;;;;;;10.83;4.70;;;21.70;71.20;;;;;;5050019;28;20040;-68
2022/07/30 06:28:46;;;;;;;5.73;4.43;;;21.80;70.70;;;;;;5060188;28;20565;-68
2022/07/30 06:31:11;;;;;;;8.50;4.90;;;21.70;70.90;;;;;;5054510;28;20052;-68
2022/07/30 06:33:37;;;;;;;9.37;4.97;;;21.70;70.90;;;;;;5059291;28;20389;-68
2022/07/30 06:36:03;;;;;;;11.90;4.63;;;22.00;70.30;;;;;;5044715;28;20040;-68
2022/07/30 06:38:29;;;;;;;9.07;4.30;;;22.30;69.50;;;;;;5026941;28;20063;-68
2022/07/30 06:40:55;;;;;;;8.97;4.23;;;22.40;69.20;;;;;;5050032;28;20040;-68
2022/07/30 06:43:21;;;;;;;10.13;4.47;;;22.50;69.10;;;;;;5053474;28;20201;-68
2022/07/30 06:45:46;;;;;;;9.20;4.27;;;22.40;69.10;;;;;;5031077;28;20036;-67
2022/07/30 06:48:12;;;;;;;7.07;4.10;;;22.40;69.30;;;;;;5046903;28;20079;-68
2022/07/30 06:50:40;;;;;;;8.20;3.90;;;22.70;68.70;;;;;;5015789;28;20348;-67
2022/07/30 06:53:05;;;;;;;8.63;4.33;;;22.80;66.60;;;;;;5048089;28;20490;-68
2022/07/30 06:55:31;;;;;;;8.73;4.60;;;22.60;66.50;;;;;;5030834;28;20036;-67
2022/07/30 06:57:57;;;;;;;8.63;3.77;;;22.00;67.20;;;;;;5045186;28;20072;-67
2022/07/30 07:00:23;;;;;;;9.67;3.87;;;21.60;68.10;;;;;;5047458;28;20489;-67
2022/07/30 07:02:48;;;;;;;9.07;3.80;;;21.20;68.70;;;;;;5035180;28;20408;-68
2022/07/30 07:05:14;;;;;;;10.67;4.30;;;20.70;69.70;;;;;;5040403;28;20045;-67
2022/07/30 07:07:40;;;;;;;10.77;4.50;;;20.40;70.40;;;;;;5045948;28;20037;-67
2022/07/30 07:10:06;;;;;;;7.80;3.83;;;20.10;71.10;;;;;;5047278;28;20481;-67
2022/07/30 07:12:32;;;;;;;9.90;4.27;;;19.80;72.20;;;;;;5027105;28;20171;-67
2022/07/30 07:14:57;;;;;;;7.20;4.30;;;19.70;73.10;;;;;;5027014;28;20041;-67
2022/07/30 07:17:23;;;;;;;8.47;4.20;;;19.80;73.80;;;;;;5047186;28;20056;-67
2022/07/30 07:19:49;;;;;;;8.33;3.57;;;19.90;73.20;;;;;;5047466;28;20080;-67
2022/07/30 07:22:14;;;;;;;8.80;4.00;;;20.00;71.60;;;;;;5046283;28;20049;-67
2022/07/30 07:24:40;;;;;;;10.73;4.23;;;19.90;71.30;;;;;;5047817;28;20044;-67
2022/07/30 07:27:06;;;;;;;8.73;4.13;;;19.80;71.50;;;;;;5030248;28;20041;-67
2022/07/30 07:29:32;;;;;;;6.07;3.50;;;19.70;72.10;;;;;;5046028;28;20476;-67
2022/07/30 07:31:57;;;;;;;7.27;4.20;;;19.70;72.60;;;;;;5045235;28;20056;-67
2022/07/30 07:34:23;;;;;;;7.23;4.20;;;19.70;72.60;;;;;;5045523;28;20041;-67
2022/07/30 07:36:49;;;;;;;6.73;3.60;;;19.80;71.80;;;;;;5029124;28;20033;-67
2022/07/30 07:39:14;;;;;;;8.83;3.60;;;19.80;71.40;;;;;;5045711;28;20455;-67
2022/07/30 07:41:40;;;;;;;9.87;3.87;;;19.90;71.30;;;;;;5029916;28;20371;-67
2022/07/30 07:44:06;;;;;;;5.20;3.63;;;19.90;71.00;;;;;;5041050;28;20064;-67
2022/07/30 07:46:32;;;;;;;8.80;4.40;;;20.00;71.00;;;;;;5030447;28;20037;-67
2022/07/30 07:48:58;;;;;;;10.80;3.10;;;20.10;70.10;;;;;;5045480;28;20128;-67
2022/07/30 07:51:23;;;;;;;7.77;3.37;;;20.00;68.50;;;;;;5046713;28;20044;-67
2022/07/30 07:53:49;;;;;;;7.97;3.50;;;19.90;68.80;;;;;;5047033;28;20072;-67
2022/07/30 07:56:15;;;;;;;8.00;3.40;;;20.00;68.70;;;;;;5029363;28;20047;-67
2022/07/30 07:58:40;;;;;;;4.17;2.93;;;20.20;68.50;;;;;;5029837;28;20041;-67
2022/07/30 08:01:06;;;;;;;7.27;3.20;;;20.30;67.40;;;;;;5044208;28;20034;-67
2022/07/30 08:03:32;;;;;;;8.53;3.23;;;20.30;67.40;;;;;;5047501;28;20048;-67
2022/07/30 08:06:00;;;;;;;5.50;2.97;;;20.20;66.50;;;;;;5050524;28;20075;-67
2022/07/30 08:08:26;;;;;;;4.93;2.90;;;20.20;66.70;;;;;;5048476;28;20037;-67
2022/07/30 08:10:52;;;;;;;8.13;3.20;;;20.20;66.30;;;;;;5032431;28;20512;-67
2022/07/30 08:13:17;;;;;;;3.77;2.30;;;20.30;66.20;;;;;;5049126;28;20087;-67
2022/07/30 08:15:43;;;;;;;6.63;2.70;;;20.30;65.80;;;;;;5050191;28;20107;-67
2022/07/30 08:18:10;;;;;;;5.07;2.20;;;20.40;66.00;;;;;;5017186;28;20576;-67
2022/07/30 08:20:38;;;;;;;4.90;2.47;;;20.50;66.00;;;;;;5050025;28;20512;-67
2022/07/30 08:23:04;;;;;;;8.10;2.87;;;20.70;66.00;;;;;;5050194;28;20572;-67
2022/07/30 08:25:30;;;;;;;6.10;3.20;;;20.90;66.00;;;;;;5048849;28;20123;-67
2022/07/30 08:27:55;;;;;;;7.90;2.83;;;20.90;65.10;;;;;;5046366;28;20029;-67
2022/07/30 08:30:21;;;;;;;5.83;2.73;;;20.80;64.80;;;;;;5046528;28;20049;-67
2022/07/30 08:32:47;;;;;;;6.93;3.03;;;20.80;65.10;;;;;;5035796;28;20045;-67
2022/07/30 08:35:13;;;;;;;11.10;3.67;;;20.80;65.00;;;;;;5040348;28;20037;-67
2022/07/30 08:37:39;;;;;;;9.13;2.77;;;20.70;65.20;;;;;;5039851;28;20043;-67
2022/07/30 08:40:07;;;;;;;4.53;2.13;;;20.80;65.50;;;;;;5049848;28;20523;-67
2022/07/30 08:42:34;;;;;;;5.73;2.40;;;20.90;65.10;;;;;;5049550;28;20330;-67
2022/07/30 08:45:00;;;;;;;4.93;2.20;;;21.00;64.70;;;;;;5048599;28;20041;-67
2022/07/30 08:47:33;;;;;;;7.17;2.60;;;21.10;64.00;;;;;;5049975;28;20571;-67
2022/07/30 08:50:03;;;;;;;5.27;2.20;;;21.20;63.10;;;;;;5048325;28;20420;-68
2022/07/30 08:52:34;;;;;;;3.60;2.10;;;21.30;62.70;;;;;;5033564;28;20389;-67
2022/07/30 08:55:00;;;;;;;4.00;2.40;;;21.50;62.60;;;;;;5030352;28;20049;-67
2022/07/30 08:57:29;;;;;;;7.83;2.20;;;21.60;62.50;;;;;;5047377;28;20082;-67
2022/07/30 08:59:57;;;;;;;6.73;3.00;;;21.70;62.00;;;;;;5041068;28;20080;-67
2022/07/30 09:02:23;;;;;;;5.80;2.90;;;21.90;61.70;;;;;;5049054;28;20496;-67
2022/07/30 09:04:48;;;;;;;6.73;2.80;;;22.10;62.00;;;;;;5017162;28;20084;-67
2022/07/30 09:07:14;;;;;;;6.27;2.57;;;22.10;61.20;;;;;;5026227;28;20038;-67
2022/07/30 09:09:40;;;;;;;6.97;2.20;;;22.10;60.70;;;;;;5021879;28;20041;-67
2022/07/30 09:12:32;;;;;;;7.50;2.40;;;22.00;61.30;;;;;;5025303;28;20048;-67
2022/07/30 09:15:05;;;;;;;5.23;2.30;;;22.00;60.80;;;;;;5042151;28;20119;-67
2022/07/30 09:18:03;;;;;;;4.13;2.70;;;21.90;60.70;;;;;;5040209;28;20047;-67
2022/07/30 09:20:34;;;;;;;5.63;2.67;;;21.90;60.30;;;;;;5018475;28;20160;-67
2022/07/30 09:23:02;;;;;;;5.17;2.50;;;22.00;60.70;;;;;;5049537;28;20445;-67
2022/07/30 09:25:43;;;;;;;5.37;2.47;;;22.20;60.50;;;;;;5062811;28;20135;-68
2022/07/30 09:28:10;;;;;;;6.73;2.47;;;22.20;60.10;;;;;;5031718;28;20544;-67
2022/07/30 09:30:47;;;;;;;3.97;1.90;;;22.10;60.40;;;;;;5048399;28;20417;-67
2022/07/30 09:33:13;;;;;;;4.57;2.47;;;22.00;60.20;;;;;;5043783;28;20037;-67
2022/07/30 09:35:41;;;;;;;5.77;2.40;;;22.10;61.10;;;;;;5048373;28;20063;-67
2022/07/30 09:38:07;;;;;;;5.27;3.00;;;22.40;61.40;;;;;;5040810;28;20084;-67
2022/07/30 09:40:33;;;;;;;7.80;2.60;;;22.60;59.10;;;;;;5076915;28;20041;-67
2022/07/30 09:43:09;;;;;;;4.30;2.50;;;22.50;58.60;;;;;;5048621;28;20040;-67
2022/07/30 09:45:48;;;;;;;5.30;2.70;;;22.30;58.40;;;;;;5029630;28;20041;-67
2022/07/30 09:48:21;;;;;;;3.63;2.13;;;22.40;59.30;;;;;;5032735;28;20516;-67
2022/07/30 09:50:49;;;;;;;5.83;2.80;;;22.60;59.00;;;;;;5024231;28;20041;-67
2022/07/30 09:53:15;;;;;;;3.23;2.27;;;22.70;58.60;;;;;;5047358;28;20045;-67
2022/07/30 09:55:41;;;;;;;4.97;2.50;;;22.60;58.80;;;;;;5031683;28;20068;-67
2022/07/30 09:58:08;;;;;;;5.53;2.50;;;22.80;58.80;;;;;;5042741;28;20442;-67
2022/07/30 10:00:36;;;;;;;5.87;1.97;;;22.80;58.20;;;;;;5048569;28;20041;-67
2022/07/30 10:03:18;;;;;;;3.73;2.20;;;22.90;59.20;;;;;;5044446;28;20047;-67
2022/07/30 10:05:55;;;;;;;9.17;3.33;;;23.30;58.90;;;;;;5040392;28;20103;-66
2022/07/30 10:08:41;;;;;;;5.07;2.07;;;23.60;57.30;;;;;;5041994;28;20037;-67
2022/07/30 10:11:09;;;;;;;3.37;2.00;;;23.50;56.70;;;;;;5047549;28;20072;-67
2022/07/30 10:13:35;;;;;;;3.27;2.20;;;23.30;57.50;;;;;;5042918;28;20043;-67
2022/07/30 10:16:02;;;;;;;5.07;2.53;;;23.40;57.90;;;;;;5046822;28;20440;-67
2022/07/30 10:18:29;;;;;;;5.43;2.17;;;23.50;57.20;;;;;;5031849;28;20048;-67
2022/07/30 10:20:55;;;;;;;4.87;2.30;;;23.30;56.90;;;;;;5049117;28;20033;-67
2022/07/30 10:23:23;;;;;;;4.70;2.03;;;23.10;58.30;;;;;;5047860;28;20097;-67
2022/07/30 10:25:49;;;;;;;4.43;2.33;;;23.10;58.60;;;;;;5047886;28;20513;-67
2022/07/30 10:28:16;;;;;;;3.33;1.90;;;23.20;57.30;;;;;;5030850;28;20037;-67
2022/07/30 10:30:42;;;;;;;4.37;2.13;;;23.10;56.90;;;;;;5023704;28;20045;-67
2022/07/30 10:33:09;;;;;;;4.10;2.20;;;22.90;57.60;;;;;;5047539;28;20037;-67
2022/07/30 10:35:34;;;;;;;2.77;1.60;;;22.80;57.90;;;;;;5042939;28;20065;-67
2022/07/30 10:38:01;;;;;;;6.87;2.63;;;22.80;58.00;;;;;;5045321;28;20099;-67
2022/07/30 10:40:34;;;;;;;4.77;1.80;;;22.80;56.70;;;;;;5047033;28;20078;-67
2022/07/30 10:43:18;;;;;;;5.03;2.03;;;22.90;56.40;;;;;;5016871;28;20132;-67
2022/07/30 10:46:11;;;;;;;6.80;2.55;;;22.60;57.30;;;;;;5035751;28;20202;-67
2022/07/30 10:48:37;;;;;;;5.50;3.20;;;22.70;58.00;;;;;;5039651;28;20386;-67
2022/07/30 10:51:03;;;;;;;3.20;2.10;;;22.80;57.50;;;;;;5044862;28;20044;-67
2022/07/30 10:53:40;;;;;;;3.50;2.17;;;22.90;57.30;;;;;;5027546;28;20040;-67
2022/07/30 10:56:16;;;;;;;4.47;1.93;;;23.10;56.50;;;;;;5044231;28;20044;-67
2022/07/30 10:59:02;;;;;;;6.10;2.10;;;23.20;56.60;;;;;;5025240;28;20041;-67
2022/07/30 11:01:47;;;;;;;4.87;2.13;;;23.40;55.00;;;;;;5043040;28;20047;-67
2022/07/30 11:04:39;;;;;;;5.05;2.00;;;23.20;56.30;;;;;;5044040;28;20049;-67
2022/07/30 11:07:23;;;;;;;4.67;1.50;;;23.30;55.80;;;;;;5043001;28;20206;-67
2022/07/30 11:09:51;;;;;;;5.15;1.48;;;23.30;56.40;;;;;;5037993;28;20049;-67
2022/07/30 11:12:46;;;;;;;3.87;1.80;;;23.40;55.00;;;;;;5043223;28;20036;-67
2022/07/30 11:15:13;;;;;;;2.72;1.58;;;23.40;54.80;;;;;;5016307;28;20042;-67
2022/07/30 11:18:05;;;;;;;4.43;1.30;;;23.40;55.20;;;;;;5044494;28;20044;-67
2022/07/30 11:20:32;;;;;;;4.60;1.13;;;23.40;54.70;;;;;;5039954;28;20463;-67
2022/07/30 11:23:32;;;;;;;1.53;0.90;;;23.40;54.80;;;;;;5028710;28;20521;-67
2022/07/30 11:25:57;;;;;;;1.67;1.13;;;23.60;53.30;;;;;;5040732;28;20048;-67
2022/07/30 11:28:56;;;;;;;1.57;1.23;;;23.50;55.00;;;;;;5026599;28;20409;-67
2022/07/30 11:31:37;;;;;;;5.60;1.20;;;23.50;54.20;;;;;;5010251;28;20048;-67
2022/07/30 11:34:18;;;;;;;4.80;1.20;;;23.50;56.20;;;;;;5044621;28;20040;-67
2022/07/30 11:37:03;;;;;;;5.70;1.10;;;23.50;54.10;;;;;;5043463;28;20045;-68
2022/07/30 11:39:47;;;;;;;;;;;23.50;53.30;;;;;;5038552;28;20042;-67
2022/07/30 11:42:31;;;;;;;2.97;1.00;;;23.50;53.30;;;;;;5048942;28;19972;-67
2022/07/30 11:45:15;;;;;;;3.87;1.67;;;23.40;54.50;;;;;;5045043;28;20519;-67
2022/07/30 11:47:46;;;;;;;2.88;1.08;;;23.60;54.20;;;;;;5043922;28;20044;-67
2022/07/30 11:50:33;;;;;;;3.53;1.10;;;23.40;54.60;;;;;;5048383;28;20049;-67
2022/07/30 11:53:05;;;;;;;5.30;0.90;;;23.60;54.10;;;;;;5028836;28;20094;-67
2022/07/30 11:55:41;;;;;;;4.33;1.30;;;23.70;54.30;;;;;;5045667;28;20047;-67
2022/07/30 11:58:10;;;;;;;2.43;0.57;;;23.80;53.70;;;;;;5046638;28;20041;-67
2022/07/30 12:00:44;;;;;;;2.13;0.70;;;24.10;54.00;;;;;;5048109;28;20562;-67
2022/07/30 12:03:12;;;;;;;2.03;1.20;;;24.30;53.90;;;;;;5031367;28;20036;-67
2022/07/30 12:05:39;;;;;;;3.67;0.90;;;24.50;52.10;;;;;;5047250;28;20037;-67
2022/07/30 12:08:05;;;;;;;2.77;1.07;;;24.40;50.10;;;;;;5046865;28;20043;-67
2022/07/30 12:10:30;;;;;;;3.50;1.13;;;24.10;51.20;;;;;;5031105;28;20033;-67
2022/07/30 12:13:13;;;;;;;2.17;0.90;;;24.00;52.20;;;;;;5048456;28;20524;-67
2022/07/30 12:15:41;;;;;;;2.60;0.70;;;24.00;51.70;;;;;;5030856;28;20037;-67
2022/07/30 12:18:10;;;;;;;1.87;0.80;;;24.10;50.80;;;;;;5048835;28;20123;-67
2022/07/30 12:20:36;;;;;;;4.27;0.90;;;24.00;51.50;;;;;;5061302;28;20072;-67
2022/07/30 12:23:02;;;;;;;2.23;0.83;;;24.00;51.60;;;;;;5048396;28;20471;-67
2022/07/30 12:25:28;;;;;;;2.03;0.90;;;24.10;51.60;;;;;;5046981;28;20500;-67
2022/07/30 12:27:55;;;;;;;4.07;0.90;;;24.20;51.30;;;;;;5014103;28;20073;-67
2022/07/30 12:30:20;;;;;;;3.67;1.20;;;24.20;50.80;;;;;;5042215;28;20104;-67
2022/07/30 12:32:46;;;;;;;2.40;0.97;;;24.10;50.60;;;;;;5027098;28;20572;-67
2022/07/30 12:35:12;;;;;;;2.57;1.00;;;24.10;50.80;;;;;;5042132;28;20057;-67
2022/07/30 12:37:39;;;;;;;1.60;0.70;;;24.00;50.70;;;;;;5031559;28;20045;-67
2022/07/30 12:40:13;;;;;;;2.37;0.80;;;23.90;50.90;;;;;;5036131;28;20041;-67
2022/07/30 12:42:52;;;;;;;3.28;0.90;;;23.90;50.70;;;;;;5044169;28;20048;-67
2022/07/30 12:45:32;;;;;;;5.10;1.00;;;23.90;50.10;;;;;;5025985;28;20059;-67
2022/07/30 12:48:00;;;;;;;2.50;0.87;;;24.00;50.60;;;;;;5043567;28;20083;-67
2022/07/30 12:50:26;;;;;;;4.57;1.60;;;24.00;50.50;;;;;;5043007;28;20047;-65
2022/07/30 12:52:54;;;;;;;4.07;1.27;;;24.10;50.20;;;;;;5042355;28;20049;-67
2022/07/30 12:55:34;;;;;;;3.67;1.00;;;24.20;50.50;;;;;;5024871;28;20049;-64